Aeroporto :
LOGIN :

Iscrizione | Disclaimer

   EN    FR    IT 

 










Sommario :    VFR   VFR Marginale   IFR   IFR Intensivo   IFR Molto Intensivo
Visibilità : 
Base nubi : 
>= 8 km
>= 3000ft
5 / 8 km
1000 / 3000 ft
1500m / 5 km
500 / 1000 ft
800 / 1500m
200 / 500 ft
< 800m
< 200 ft
Simboli :   Temporali  Nebbia  Neve Forte  Precipitazioni Forti  Vento > 20 kt
SIGMETs :   Varie  Temporali  Ghiacco  Turbolenza  Onda orograficha  Ceneri Vulcaniche







- Altitudine del aeroporto : 112 ft
- Codice IATA : KIR


EIKY - Kerry Farranfore

ULTIMO METAR :
  • 191400Z 33008KT 270V010 9999 FEW040 SCT049 14/06 Q1015

METARs OBSOLETI :
  • 191330Z 33008KT 290V010 9999 FEW047 14/04 Q1015
  • 191300Z 31009KT 250V350 9999 SCT035 SCT056 14/07 Q1015
  • 191230Z 32009KT 270V360 9999 FEW035 SCT046 13/06 Q1015
  • 191200Z 34010KT 9999 FEW035 SCT045 13/06 Q1015
  • 191130Z 33009KT 290V010 9999 SCT027 BKN033 13/07 Q1015

TAF TAF EIKY
Valido dal 19 a 12 ore il 19 a 21 ore UTC


191100Z 1912/1921 32010KT 9999 SCT025
Nessun NOTAM noto per questo aeroporto.



MetMap, La meteo Aeronautica in un colpo d'occhio ! - Copyright ORBIFLY Dicembre 2007 - Disclaimer

ORBIFLY MET'MAP TEAM :

Programmazione e sviluppo : Alexandra Zaïnal
Concezione e sviluppo : Baudouin d'Aumeries
Co-Programmazione e sviluppo : Marc-Olivier Méhu
Supporto tecnico e logistico : Manuel Goepfert
Aiuto per la traduzione : Arnaldo La Scala

Contatto : metmap@orbifly.com




FONTI E CREDITI :

   NOAA